createdAt,value
2019-02-22T00:00:56.243Z,11.00
2019-02-22T00:03:46.224Z,11.02
2019-02-22T00:06:36.347Z,11.00
2019-02-22T00:09:26.445Z,10.99
2019-02-22T00:12:16.507Z,10.88
2019-02-22T00:15:07.751Z,10.85
2019-02-22T00:17:57.835Z,10.89
2019-02-22T00:20:48.232Z,10.85
2019-02-22T00:23:38.721Z,10.84
2019-02-22T00:26:29.083Z,10.73
2019-02-22T00:29:19.499Z,10.74
2019-02-22T00:32:12.583Z,10.74
2019-02-22T00:35:02.889Z,10.80
2019-02-22T00:37:54.484Z,10.82
2019-02-22T00:40:45.058Z,10.87
2019-02-22T00:43:35.584Z,10.87
2019-02-22T00:46:26.067Z,10.80
2019-02-22T00:49:16.462Z,10.85
2019-02-22T00:52:06.807Z,10.81
2019-02-22T00:54:57.141Z,10.81
2019-02-22T00:57:47.523Z,10.78
2019-02-22T01:00:37.726Z,10.83
2019-02-22T01:03:28.187Z,10.78
2019-02-22T01:06:18.330Z,10.72
2019-02-22T01:09:09.507Z,10.76
2019-02-22T01:12:00.091Z,10.76
2019-02-22T01:14:50.616Z,10.68
2019-02-22T01:17:41.024Z,10.55
2019-02-22T01:20:31.508Z,10.57
2019-02-22T01:23:21.809Z,10.55
2019-02-22T01:26:12.295Z,10.57
2019-02-22T01:29:02.631Z,10.55
2019-02-22T01:31:52.971Z,10.44
2019-02-22T01:34:45.983Z,10.38
2019-02-22T01:37:36.106Z,10.39
2019-02-22T01:40:26.111Z,10.38
2019-02-22T01:43:16.435Z,10.42
2019-02-22T01:46:06.932Z,10.41
2019-02-22T01:48:58.145Z,10.44
2019-02-22T01:51:48.422Z,10.45
2019-02-22T01:54:38.709Z,10.45
2019-02-22T01:57:29.115Z,10.44
2019-02-22T02:00:19.505Z,10.42
2019-02-22T02:03:09.772Z,10.43
2019-02-22T02:06:00.191Z,10.40
2019-02-22T02:08:51.588Z,10.34
2019-02-22T02:11:41.743Z,10.41
2019-02-22T02:14:32.076Z,10.38
2019-02-22T02:17:23.601Z,10.39
2019-02-22T02:20:14.100Z,10.36
2019-02-22T02:23:04.581Z,10.30
2019-02-22T02:25:54.974Z,10.35
2019-02-22T02:28:45.305Z,10.39
2019-02-22T02:31:35.391Z,10.39
2019-02-22T02:34:25.855Z,10.35
2019-02-22T02:37:16.203Z,10.29
2019-02-22T02:40:07.150Z,10.25
2019-02-22T02:42:57.188Z,10.26
2019-02-22T02:45:50.271Z,10.34
2019-02-22T02:48:40.311Z,10.31
2019-02-22T02:51:30.623Z,10.28
2019-02-22T02:54:21.002Z,10.32
2019-02-22T02:57:11.714Z,10.36
2019-02-22T03:00:02.109Z,10.31
2019-02-22T03:02:53.602Z,10.17
2019-02-22T03:06:06.523Z,10.08
2019-02-22T03:08:56.902Z,9.98
2019-02-22T03:11:47.315Z,10.05
2019-02-22T03:14:37.870Z,10.01
2019-02-22T03:17:28.352Z,9.99
2019-02-22T03:20:18.771Z,10.00
2019-02-22T03:23:09.113Z,9.95
2019-02-22T03:25:59.582Z,9.95
2019-02-22T03:28:49.963Z,10.04
2019-02-22T03:31:40.294Z,9.93
2019-02-22T03:34:30.641Z,9.91
2019-02-22T03:37:21.039Z,9.89
2019-02-22T03:40:11.455Z,9.92
2019-02-22T03:43:02.086Z,9.85
2019-02-22T03:45:52.443Z,9.91
2019-02-22T03:48:42.917Z,9.98
2019-02-22T03:51:33.225Z,9.94
2019-02-22T03:54:23.544Z,9.97
2019-02-22T03:57:13.851Z,9.85
2019-02-22T04:00:04.407Z,9.83
2019-02-22T04:02:56.187Z,9.65
2019-02-22T04:05:46.640Z,9.65
2019-02-22T04:08:37.991Z,9.63
2019-02-22T04:11:28.484Z,9.68
2019-02-22T04:14:18.703Z,9.68
2019-02-22T04:17:11.449Z,9.76
2019-02-22T04:20:01.207Z,9.71
2019-02-22T04:22:51.729Z,9.71
2019-02-22T04:25:42.248Z,9.70
2019-02-22T04:28:32.625Z,9.69
2019-02-22T04:31:23.225Z,9.58
2019-02-22T04:34:13.347Z,9.61
2019-02-22T04:37:03.738Z,9.65
2019-02-22T04:39:54.044Z,9.65
2019-02-22T04:42:46.484Z,9.70
2019-02-22T04:45:36.922Z,9.72
2019-02-22T04:48:29.685Z,9.75
2019-02-22T04:51:21.101Z,9.65
2019-02-22T04:54:11.429Z,9.59
2019-02-22T04:57:01.804Z,9.56
2019-02-22T04:59:52.187Z,9.55
2019-02-22T05:02:43.175Z,9.63
2019-02-22T05:05:33.591Z,9.66
2019-02-22T05:08:23.739Z,9.65
2019-02-22T05:11:14.174Z,9.59
2019-02-22T05:14:04.376Z,9.60
2019-02-22T05:16:54.686Z,9.56
2019-02-22T05:19:44.837Z,9.57
2019-02-22T05:22:35.178Z,9.62
2019-02-22T05:25:25.555Z,9.67
2019-02-22T05:28:15.947Z,9.70
2019-02-22T05:31:06.354Z,9.76
2019-02-22T05:33:56.882Z,9.81
2019-02-22T05:36:47.331Z,9.93
2019-02-22T05:39:37.721Z,10.05
2019-02-22T05:42:28.783Z,10.14
2019-02-22T05:45:19.141Z,10.24
2019-02-22T05:48:09.520Z,10.35
2019-02-22T05:50:59.632Z,10.60
2019-02-22T05:53:49.891Z,10.91
2019-02-22T05:56:40.208Z,11.21
2019-02-22T05:59:30.440Z,11.73
2019-02-22T06:02:23.546Z,12.57
2019-02-22T06:05:15.101Z,13.51
2019-02-22T06:08:08.605Z,14.39
2019-02-22T06:10:57.414Z,15.21
2019-02-22T06:13:48.008Z,16.19
2019-02-22T06:16:45.400Z,17.01
2019-02-22T06:19:35.479Z,17.86
2019-02-22T06:22:29.482Z,18.49
2019-02-22T06:25:17.547Z,19.30
2019-02-22T06:28:08.019Z,20.07
2019-02-22T06:30:58.507Z,20.63
2019-02-22T06:33:49.026Z,20.62
2019-02-22T06:36:39.358Z,20.57
2019-02-22T06:39:29.800Z,20.85
2019-02-22T06:42:20.124Z,21.15
2019-02-22T06:45:10.519Z,21.68
2019-02-22T06:48:04.155Z,21.93
2019-02-22T06:50:54.240Z,21.94
2019-02-22T06:53:44.929Z,22.42
2019-02-22T06:56:35.706Z,23.24
2019-02-22T06:59:26.584Z,23.52
2019-02-22T07:02:17.677Z,23.86
2019-02-22T07:05:08.653Z,22.32
2019-02-22T07:07:59.646Z,22.43
2019-02-22T07:11:05.410Z,21.30
2019-02-22T07:13:56.210Z,22.43
2019-02-22T07:16:47.307Z,23.36
2019-02-22T07:19:38.280Z,23.24
2019-02-22T07:22:28.908Z,22.42
2019-02-22T07:25:20.054Z,22.94
2019-02-22T07:28:12.665Z,23.51
2019-02-22T07:31:06.419Z,23.03
2019-02-22T07:33:57.327Z,23.91
2019-02-22T07:36:48.421Z,24.31
2019-02-22T07:39:39.332Z,24.50
2019-02-22T07:42:30.285Z,24.22
2019-02-22T07:45:21.247Z,25.65
2019-02-22T07:48:12.231Z,26.22
2019-02-22T07:51:03.226Z,26.89
2019-02-22T07:53:54.257Z,26.71
2019-02-22T07:56:45.123Z,27.56
2019-02-22T07:59:35.821Z,25.81
2019-02-22T08:02:26.743Z,26.13
2019-02-22T08:05:17.705Z,26.07
2019-02-22T08:08:08.730Z,26.11
2019-02-22T08:10:59.836Z,26.40
2019-02-22T08:13:50.789Z,25.93
2019-02-22T08:16:42.401Z,24.70
2019-02-22T08:19:33.426Z,25.17
2019-02-22T08:22:24.410Z,24.69
2019-02-22T08:25:15.341Z,25.06
2019-02-22T08:28:06.111Z,24.86
2019-02-22T08:30:57.013Z,24.62
2019-02-22T08:33:48.040Z,23.84
2019-02-22T08:36:39.047Z,24.38
2019-02-22T08:39:29.855Z,23.29
2019-02-22T08:42:20.895Z,22.57
2019-02-22T08:45:11.330Z,21.47
2019-02-22T08:48:01.293Z,20.67
2019-02-22T08:50:51.640Z,20.12
2019-02-22T08:53:41.953Z,19.89
2019-02-22T08:56:32.479Z,19.54
2019-02-22T08:59:22.604Z,18.91
2019-02-22T09:02:12.544Z,18.80
2019-02-22T09:05:02.829Z,18.41
2019-02-22T09:07:53.313Z,18.10
2019-02-22T09:10:43.782Z,18.05
2019-02-22T09:13:43.072Z,18.00
2019-02-22T09:16:25.784Z,17.77
2019-02-22T09:19:16.972Z,18.07
2019-02-22T09:22:07.319Z,18.13
2019-02-22T09:24:58.111Z,18.50
2019-02-22T09:27:48.516Z,18.13
2019-02-22T09:30:38.862Z,17.90
2019-02-22T09:33:29.177Z,17.90
2019-02-22T09:36:19.462Z,17.41
2019-02-22T09:39:09.755Z,17.49
2019-02-22T09:42:00.098Z,17.64
2019-02-22T09:44:50.367Z,17.48
2019-02-22T09:47:40.734Z,16.80
2019-02-22T09:50:31.091Z,16.68
2019-02-22T09:53:21.179Z,16.58
2019-02-22T09:56:11.455Z,16.43
2019-02-22T09:59:02.009Z,16.30
2019-02-22T10:01:52.132Z,16.43
2019-02-22T10:04:42.485Z,16.60
2019-02-22T10:07:32.806Z,16.70
2019-02-22T10:10:22.991Z,16.71
2019-02-22T10:13:13.278Z,16.59
2019-02-22T10:16:03.404Z,16.55
2019-02-22T10:18:53.416Z,16.67
2019-02-22T10:21:43.529Z,16.68
2019-02-22T10:24:34.220Z,16.73
2019-02-22T10:27:24.763Z,16.49
2019-02-22T10:30:15.094Z,16.44
2019-02-22T10:33:05.259Z,16.61
2019-02-22T10:35:55.558Z,16.65
2019-02-22T10:38:45.914Z,16.63
2019-02-22T10:41:36.232Z,16.47
2019-02-22T10:44:26.555Z,16.33
2019-02-22T10:47:16.845Z,16.39
2019-02-22T10:50:07.298Z,16.24
2019-02-22T10:53:02.167Z,16.23
2019-02-22T10:55:49.572Z,16.12
2019-02-22T10:58:40.031Z,16.04
2019-02-22T11:01:30.441Z,16.06
2019-02-22T11:04:20.682Z,15.82
2019-02-22T11:07:11.064Z,15.84
2019-02-22T11:10:01.328Z,16.00
2019-02-22T11:12:51.771Z,15.85
2019-02-22T11:15:42.126Z,15.90
2019-02-22T11:18:32.218Z,15.94
2019-02-22T11:21:22.511Z,16.09
2019-02-22T11:24:13.121Z,16.05
2019-02-22T11:27:03.690Z,15.93
2019-02-22T11:29:53.989Z,16.13
2019-02-22T11:32:44.306Z,16.21
2019-02-22T11:35:34.469Z,16.22
2019-02-22T11:38:24.827Z,16.06
2019-02-22T11:41:15.040Z,16.16
2019-02-22T11:44:05.383Z,16.31
2019-02-22T11:46:55.890Z,16.34
2019-02-22T11:49:46.033Z,16.35
2019-02-22T11:52:40.329Z,16.15
2019-02-22T11:55:30.620Z,16.21
2019-02-22T11:58:21.022Z,16.34
2019-02-22T12:01:11.480Z,16.42
2019-02-22T12:04:02.092Z,16.62
2019-02-22T12:06:53.341Z,16.61
2019-02-22T12:09:43.841Z,16.18
2019-02-22T12:12:34.122Z,16.24
2019-02-22T12:15:24.608Z,16.37
2019-02-22T12:18:14.917Z,16.77
2019-02-22T12:21:05.245Z,16.93
2019-02-22T12:23:55.604Z,17.16
2019-02-22T12:26:45.992Z,17.03
2019-02-22T12:29:37.322Z,16.93
2019-02-22T12:32:27.701Z,17.04
2019-02-22T12:35:18.223Z,16.91
2019-02-22T12:38:08.656Z,16.90
2019-02-22T12:40:58.756Z,16.63
2019-02-22T12:43:49.087Z,16.60
2019-02-22T12:46:40.051Z,16.68
2019-02-22T12:49:31.478Z,16.90
2019-02-22T12:52:21.805Z,16.91
2019-02-22T12:55:12.218Z,16.57
2019-02-22T12:58:02.544Z,16.40
2019-02-22T13:00:52.904Z,16.69
2019-02-22T13:03:42.966Z,16.47
2019-02-22T13:06:33.413Z,16.56
2019-02-22T13:09:23.864Z,16.67
2019-02-22T13:12:17.224Z,16.57
2019-02-22T13:15:14.255Z,16.35
2019-02-22T13:17:59.280Z,16.41
2019-02-22T13:20:49.498Z,16.42
2019-02-22T13:23:40.807Z,16.53
2019-02-22T13:26:32.308Z,16.52
2019-02-22T13:29:22.725Z,16.57
2019-02-22T13:32:13.082Z,16.65
2019-02-22T13:35:03.963Z,16.46
2019-02-22T13:37:54.335Z,16.52
2019-02-22T13:40:44.518Z,16.46
2019-02-22T13:43:34.610Z,16.51
2019-02-22T13:46:26.647Z,16.46
2019-02-22T13:49:17.941Z,16.51
2019-02-22T13:52:08.230Z,16.42
2019-02-22T13:54:58.422Z,16.47
2019-02-22T13:57:48.979Z,16.30
2019-02-22T14:00:39.279Z,16.15
2019-02-22T14:03:29.416Z,15.99
2019-02-22T14:06:19.695Z,16.02
2019-02-22T14:09:10.067Z,16.03
2019-02-22T14:12:00.323Z,15.82
2019-02-22T14:14:50.697Z,15.81
2019-02-22T14:17:41.019Z,15.81
2019-02-22T14:20:31.594Z,15.85
2019-02-22T14:23:21.842Z,15.59
2019-02-22T14:26:15.042Z,15.45
2019-02-22T14:29:05.249Z,15.49
2019-02-22T14:31:56.648Z,15.22
2019-02-22T14:34:46.763Z,15.11
2019-02-22T14:37:37.109Z,15.11
2019-02-22T14:40:27.185Z,15.07
2019-02-22T14:43:17.581Z,15.04
2019-02-22T14:46:07.896Z,14.90
2019-02-22T14:48:58.214Z,14.76
2019-02-22T14:51:48.250Z,14.77
2019-02-22T14:54:38.579Z,14.60
2019-02-22T14:57:28.924Z,14.48
2019-02-22T15:00:19.634Z,14.47
2019-02-22T15:03:10.094Z,14.36
2019-02-22T15:06:00.983Z,14.41
2019-02-22T15:08:51.286Z,14.42
2019-02-22T15:11:42.793Z,14.36
2019-02-22T15:14:32.837Z,14.23
2019-02-22T15:17:36.402Z,14.20
2019-02-22T15:20:26.669Z,14.11
2019-02-22T15:23:17.055Z,14.09
2019-02-22T15:26:07.574Z,14.01
2019-02-22T15:28:58.579Z,14.03
2019-02-22T15:31:48.709Z,14.12
2019-02-22T15:34:39.754Z,14.07
2019-02-22T15:37:30.123Z,14.08
2019-02-22T15:40:20.408Z,14.04
2019-02-22T15:43:10.596Z,14.02
2019-02-22T15:46:11.445Z,14.01
2019-02-22T15:48:52.389Z,14.05
2019-02-22T15:51:42.585Z,14.00
2019-02-22T15:54:32.876Z,13.95
2019-02-22T15:57:25.048Z,13.99
2019-02-22T16:00:18.886Z,13.91
2019-02-22T16:03:09.518Z,13.89
2019-02-22T16:06:00.000Z,13.79
2019-02-22T16:08:50.400Z,13.78
2019-02-22T16:11:40.618Z,13.68
2019-02-22T16:14:31.156Z,13.65
2019-02-22T16:17:21.492Z,13.65
2019-02-22T16:20:11.746Z,13.59
2019-02-22T16:23:02.893Z,13.57
2019-02-22T16:25:53.597Z,13.57
2019-02-22T16:28:43.929Z,13.49
2019-02-22T16:31:34.283Z,13.50
2019-02-22T16:34:24.606Z,13.49
2019-02-22T16:37:15.411Z,13.55
2019-02-22T16:40:06.757Z,13.44
2019-02-22T16:42:57.690Z,13.44
2019-02-22T16:45:48.027Z,13.39
2019-02-22T16:48:38.348Z,13.36
2019-02-22T16:51:28.725Z,13.36
2019-02-22T16:54:18.882Z,13.41
2019-02-22T16:57:09.138Z,13.34
2019-02-22T16:59:59.614Z,13.25
2019-02-22T17:02:49.774Z,13.32
2019-02-22T17:05:39.874Z,13.26
2019-02-22T17:08:30.148Z,13.07
2019-02-22T17:11:20.324Z,13.13
2019-02-22T17:14:10.854Z,13.06
2019-02-22T17:17:01.833Z,12.99
2019-02-22T17:19:52.484Z,13.07
2019-02-22T17:22:42.589Z,12.94
2019-02-22T17:25:32.571Z,12.90
2019-02-22T17:28:23.130Z,12.89
2019-02-22T17:31:13.900Z,12.84
2019-02-22T17:34:04.286Z,12.76
2019-02-22T17:36:54.262Z,12.77
2019-02-22T17:39:46.126Z,12.75
2019-02-22T17:42:36.450Z,12.73
2019-02-22T17:45:26.941Z,12.74
2019-02-22T17:48:17.463Z,12.77
2019-02-22T17:51:07.621Z,12.74
2019-02-22T17:53:57.900Z,12.61
2019-02-22T17:56:48.283Z,12.56
2019-02-22T17:59:38.278Z,12.57
2019-02-22T18:02:28.936Z,12.63
2019-02-22T18:05:18.973Z,12.71
2019-02-22T18:08:10.263Z,12.79
2019-02-22T18:11:00.601Z,12.78
2019-02-22T18:13:50.858Z,12.77
2019-02-22T18:16:43.148Z,12.80
2019-02-22T18:19:33.458Z,12.74
2019-02-22T18:22:26.484Z,12.77
2019-02-22T18:25:18.033Z,12.69
2019-02-22T18:28:08.494Z,12.67
2019-02-22T18:31:01.555Z,12.64
2019-02-22T18:33:52.042Z,12.57
2019-02-22T18:36:42.648Z,12.53
2019-02-22T18:39:33.128Z,12.51
2019-02-22T18:42:23.485Z,12.38
2019-02-22T18:45:13.865Z,12.29
2019-02-22T18:48:04.241Z,12.22
2019-02-22T18:50:57.091Z,12.26
2019-02-22T18:53:47.550Z,12.21
2019-02-22T18:56:37.830Z,12.11
2019-02-22T18:59:28.170Z,11.99
2019-02-22T19:02:18.483Z,11.90
2019-02-22T19:05:09.505Z,11.91
2019-02-22T19:07:59.944Z,11.91
2019-02-22T19:10:50.549Z,11.85
2019-02-22T19:13:40.993Z,11.86
2019-02-22T19:16:31.376Z,11.83
2019-02-22T19:19:21.646Z,11.88
2019-02-22T19:22:12.137Z,11.93
2019-02-22T19:25:02.052Z,11.85
2019-02-22T19:27:52.384Z,11.90
2019-02-22T19:30:42.639Z,11.85
2019-02-22T19:33:33.024Z,11.80
2019-02-22T19:36:23.372Z,11.76
2019-02-22T19:39:13.911Z,11.78
2019-02-22T19:42:04.311Z,11.81
2019-02-22T19:44:54.888Z,11.84
2019-02-22T19:47:45.132Z,11.82
2019-02-22T19:50:41.298Z,11.73
2019-02-22T19:53:27.161Z,11.73
2019-02-22T19:56:17.682Z,11.72
2019-02-22T19:59:07.781Z,11.70
2019-02-22T20:01:58.185Z,11.72
2019-02-22T20:04:48.472Z,11.71
2019-02-22T20:07:39.025Z,11.69
2019-02-22T20:10:29.421Z,11.76
2019-02-22T20:13:20.107Z,11.68
2019-02-22T20:16:10.433Z,11.68
2019-02-22T20:19:01.192Z,11.64
2019-02-22T20:21:52.536Z,11.61
2019-02-22T20:24:43.204Z,11.60
2019-02-22T20:27:34.477Z,11.55
2019-02-22T20:30:25.884Z,11.57
2019-02-22T20:33:16.016Z,11.55
2019-02-22T20:36:06.490Z,11.49
2019-02-22T20:38:56.786Z,11.52
2019-02-22T20:41:47.226Z,11.48
2019-02-22T20:44:37.671Z,11.46
2019-02-22T20:47:28.144Z,11.55
2019-02-22T20:50:18.541Z,11.47
2019-02-22T20:53:09.042Z,11.42
2019-02-22T20:55:59.419Z,11.41
2019-02-22T20:58:49.465Z,11.43
2019-02-22T21:01:39.757Z,11.43
2019-02-22T21:04:30.077Z,11.42
2019-02-22T21:07:21.275Z,11.44
2019-02-22T21:10:13.985Z,11.38
2019-02-22T21:13:04.281Z,11.34
2019-02-22T21:15:54.673Z,11.31
2019-02-22T21:18:46.287Z,11.34
2019-02-22T21:21:36.853Z,11.24
2019-02-22T21:24:27.146Z,11.23
2019-02-22T21:27:17.675Z,11.18
2019-02-22T21:30:09.056Z,11.17
2019-02-22T21:32:59.592Z,11.11
2019-02-22T21:35:49.541Z,11.09
2019-02-22T21:38:39.942Z,11.03
2019-02-22T21:41:32.214Z,10.99
2019-02-22T21:44:22.843Z,10.94
2019-02-22T21:47:14.195Z,10.85
2019-02-22T21:50:05.272Z,10.83
2019-02-22T21:52:55.392Z,10.91
2019-02-22T21:55:45.951Z,10.83
2019-02-22T21:58:36.293Z,10.81
2019-02-22T22:01:26.447Z,10.78
2019-02-22T22:04:16.903Z,10.83
2019-02-22T22:07:07.192Z,10.61
2019-02-22T22:09:57.684Z,10.73
2019-02-22T22:12:47.954Z,10.72
2019-02-22T22:15:40.739Z,10.61
2019-02-22T22:18:38.924Z,10.61
2019-02-22T22:21:26.892Z,10.63
2019-02-22T22:24:17.316Z,10.62
2019-02-22T22:27:07.618Z,10.55
2019-02-22T22:29:57.893Z,10.48
2019-02-22T22:32:48.009Z,10.47
2019-02-22T22:35:38.400Z,10.45
2019-02-22T22:38:28.756Z,10.49
2019-02-22T22:41:19.239Z,10.48
2019-02-22T22:44:09.572Z,10.44
2019-02-22T22:47:00.006Z,10.42
2019-02-22T22:49:50.562Z,10.47
2019-02-22T22:52:41.068Z,10.46
2019-02-22T22:55:31.498Z,10.43
2019-02-22T22:58:21.506Z,10.43
2019-02-22T23:01:21.214Z,10.38
2019-02-22T23:04:11.712Z,10.41
2019-02-22T23:07:02.155Z,10.42
2019-02-22T23:09:52.805Z,10.34
2019-02-22T23:12:44.277Z,10.34
2019-02-22T23:15:34.958Z,10.46
2019-02-22T23:18:25.178Z,10.51
2019-02-22T23:21:15.334Z,10.49
2019-02-22T23:24:05.603Z,10.43
2019-02-22T23:26:56.053Z,10.44
2019-02-22T23:29:46.352Z,10.51
2019-02-22T23:32:36.736Z,10.54
2019-02-22T23:35:26.935Z,10.49
2019-02-22T23:38:17.158Z,10.37
2019-02-22T23:41:07.709Z,10.45
2019-02-22T23:43:58.106Z,10.59
2019-02-22T23:46:48.423Z,10.65
2019-02-22T23:49:41.222Z,10.69
2019-02-22T23:52:33.940Z,10.76
2019-02-22T23:55:24.713Z,10.71
2019-02-22T23:58:15.000Z,10.73
